createdAt,value
2022-09-21T00:01:37.528Z,41.14
2022-09-21T00:04:04.164Z,41.21
2022-09-21T00:06:31.888Z,41.18
2022-09-21T00:08:58.551Z,41.07
2022-09-21T00:11:28.020Z,41.26
2022-09-21T00:13:55.432Z,41.21
2022-09-21T00:16:22.014Z,41.04
2022-09-21T00:18:48.586Z,40.97
2022-09-21T00:21:15.993Z,41.20
2022-09-21T00:23:43.085Z,41.13
2022-09-21T00:26:11.186Z,41.00
2022-09-21T00:28:38.249Z,41.17
2022-09-21T00:31:06.835Z,41.30
2022-09-21T00:33:33.875Z,41.13
2022-09-21T00:36:07.494Z,41.36
2022-09-21T00:38:34.331Z,41.49
2022-09-21T00:41:00.689Z,41.75
2022-09-21T00:43:27.290Z,41.32
2022-09-21T00:45:57.155Z,41.28
2022-09-21T00:48:23.715Z,41.15
2022-09-21T00:50:53.775Z,40.93
2022-09-21T00:53:20.426Z,41.13
2022-09-21T00:55:50.001Z,40.90
2022-09-21T00:58:19.585Z,40.90
2022-09-21T01:00:46.026Z,41.09
2022-09-21T01:03:12.935Z,41.04
2022-09-21T01:05:39.301Z,40.90
2022-09-21T01:08:07.794Z,40.80
2022-09-21T01:10:42.127Z,40.71
2022-09-21T01:13:21.504Z,40.72
2022-09-21T01:15:47.823Z,40.88
2022-09-21T01:18:24.772Z,40.65
2022-09-21T01:20:54.222Z,40.97
2022-09-21T01:23:23.531Z,40.71
2022-09-21T01:25:49.898Z,40.65
2022-09-21T01:28:20.323Z,40.80
2022-09-21T01:30:49.459Z,40.96
2022-09-21T01:33:20.839Z,41.24
2022-09-21T01:35:49.062Z,41.40
2022-09-21T01:38:26.888Z,41.51
2022-09-21T01:40:56.902Z,41.32
2022-09-21T01:43:29.665Z,41.16
2022-09-21T01:46:02.072Z,41.13
2022-09-21T01:48:31.503Z,41.05
2022-09-21T01:50:59.180Z,41.14
2022-09-21T01:53:32.895Z,41.04
2022-09-21T01:56:22.619Z,41.25
2022-09-21T01:59:01.334Z,41.01
2022-09-21T02:01:30.544Z,41.20
2022-09-21T02:04:03.183Z,40.85
2022-09-21T02:06:30.418Z,40.88
2022-09-21T02:08:57.672Z,41.17
2022-09-21T02:11:24.132Z,40.96
2022-09-21T02:13:52.270Z,41.10
2022-09-21T02:16:36.117Z,40.92
2022-09-21T02:19:07.590Z,41.26
2022-09-21T02:21:42.154Z,40.84
2022-09-21T02:24:21.932Z,41.04
2022-09-21T02:27:06.738Z,40.88
2022-09-21T02:29:51.921Z,41.11
2022-09-21T02:32:24.472Z,41.17
2022-09-21T02:34:59.290Z,41.16
2022-09-21T02:37:34.050Z,40.98
2022-09-21T02:40:09.930Z,41.18
2022-09-21T02:42:39.151Z,41.07
2022-09-21T02:45:09.648Z,41.75
2022-09-21T02:47:38.898Z,41.94
2022-09-21T02:50:11.976Z,42.18
2022-09-21T02:52:40.982Z,41.71
2022-09-21T02:55:07.760Z,41.94
2022-09-21T02:57:35.126Z,41.66
2022-09-21T03:00:01.660Z,41.84
2022-09-21T03:02:41.465Z,41.41
2022-09-21T03:05:08.645Z,41.56
2022-09-21T03:07:35.023Z,41.36
2022-09-21T03:10:01.915Z,41.39
2022-09-21T03:12:28.299Z,41.30
2022-09-21T03:14:56.022Z,41.36
2022-09-21T03:17:22.492Z,41.53
2022-09-21T03:19:49.110Z,41.33
2022-09-21T03:22:17.090Z,41.41
2022-09-21T03:24:46.428Z,41.44
2022-09-21T03:27:16.814Z,41.48
2022-09-21T03:29:43.377Z,41.57
2022-09-21T03:32:09.780Z,41.49
2022-09-21T03:34:36.298Z,41.48
2022-09-21T03:37:03.612Z,41.24
2022-09-21T03:39:30.063Z,41.21
2022-09-21T03:41:56.967Z,41.23
2022-09-21T03:44:24.263Z,41.36
2022-09-21T03:46:50.723Z,41.26
2022-09-21T03:49:17.707Z,40.92
2022-09-21T03:51:44.340Z,41.12
2022-09-21T03:54:10.909Z,41.12
2022-09-21T03:56:37.501Z,41.17
2022-09-21T03:59:03.912Z,41.18
2022-09-21T04:01:30.348Z,41.20
2022-09-21T04:03:56.844Z,41.31
2022-09-21T04:06:23.172Z,41.33
2022-09-21T04:08:50.110Z,41.15
2022-09-21T04:11:18.539Z,41.14
2022-09-21T04:13:49.170Z,41.29
2022-09-21T04:16:15.827Z,41.29
2022-09-21T04:18:42.169Z,41.06
2022-09-21T04:21:08.602Z,41.21
2022-09-21T04:23:35.678Z,41.31
2022-09-21T04:26:02.189Z,41.03
2022-09-21T04:28:29.293Z,41.02
2022-09-21T04:30:55.769Z,41.28
2022-09-21T04:33:23.866Z,41.33
2022-09-21T04:35:56.288Z,41.19
2022-09-21T04:38:22.670Z,41.05
2022-09-21T04:40:58.394Z,40.96
2022-09-21T04:43:25.162Z,41.31
2022-09-21T04:45:51.677Z,41.32
2022-09-21T04:48:18.148Z,41.27
2022-09-21T04:50:48.154Z,41.31
2022-09-21T04:53:14.562Z,41.50
2022-09-21T04:55:40.967Z,41.37
2022-09-21T04:58:07.568Z,41.71
2022-09-21T05:00:33.940Z,41.66
2022-09-21T05:03:00.391Z,41.88
2022-09-21T05:05:26.722Z,42.02
2022-09-21T05:07:53.150Z,41.90
2022-09-21T05:10:19.520Z,42.02
2022-09-21T05:12:46.475Z,41.54
2022-09-21T05:15:13.039Z,41.08
2022-09-21T05:17:40.932Z,40.94
2022-09-21T05:20:07.629Z,40.66
2022-09-21T05:22:34.206Z,40.63
2022-09-21T05:25:00.804Z,40.77
2022-09-21T05:27:27.277Z,40.56
2022-09-21T05:29:53.920Z,40.79
2022-09-21T05:32:24.321Z,40.58
2022-09-21T05:34:57.168Z,40.71
2022-09-21T05:37:23.519Z,40.33
2022-09-21T05:39:50.075Z,40.73
2022-09-21T05:42:16.585Z,40.61
2022-09-21T05:44:43.228Z,40.45
2022-09-21T05:47:22.024Z,40.45
2022-09-21T05:49:51.361Z,40.46
2022-09-21T05:52:26.786Z,40.48
2022-09-21T05:55:12.617Z,40.63
2022-09-21T05:57:51.001Z,40.56
2022-09-21T06:00:23.673Z,40.43
2022-09-21T06:02:52.744Z,40.51
2022-09-21T06:05:19.361Z,40.32
2022-09-21T06:07:45.773Z,40.30
2022-09-21T06:10:12.794Z,40.55
2022-09-21T06:12:39.592Z,40.33
2022-09-21T06:15:07.017Z,40.56
2022-09-21T06:17:33.615Z,40.25
2022-09-21T06:19:59.977Z,40.23
2022-09-21T06:22:26.318Z,40.33
2022-09-21T06:24:52.700Z,40.20
2022-09-21T06:27:19.069Z,40.25
2022-09-21T06:29:45.427Z,40.24
2022-09-21T06:32:11.756Z,40.48
2022-09-21T06:34:38.171Z,40.26
2022-09-21T06:37:04.566Z,40.25
2022-09-21T06:39:31.151Z,40.23
2022-09-21T06:41:57.556Z,40.25
2022-09-21T06:44:23.963Z,40.25
2022-09-21T06:46:50.308Z,40.42
2022-09-21T06:49:16.691Z,40.28
2022-09-21T06:51:43.482Z,40.35
2022-09-21T06:54:11.430Z,40.29
2022-09-21T06:56:37.813Z,40.21
2022-09-21T06:59:04.180Z,40.29
2022-09-21T07:01:30.643Z,40.17
2022-09-21T07:03:57.057Z,40.46
2022-09-21T07:06:23.397Z,40.24
2022-09-21T07:11:41.473Z,40.12
2022-09-21T07:14:08.059Z,40.25
2022-09-21T07:16:34.976Z,40.42
2022-09-21T07:19:10.998Z,40.46
2022-09-21T07:21:38.059Z,40.27
2022-09-21T07:24:08.249Z,40.51
2022-09-21T07:26:37.537Z,40.45
2022-09-21T07:29:03.992Z,40.53
2022-09-21T07:31:30.508Z,40.49
2022-09-21T07:33:58.358Z,40.41
2022-09-21T07:36:24.764Z,40.39
2022-09-21T07:38:51.214Z,40.64
2022-09-21T07:41:17.695Z,40.53
2022-09-21T07:43:44.116Z,40.57
2022-09-21T07:46:11.639Z,40.62
2022-09-21T07:48:38.046Z,40.91
2022-09-21T07:51:06.185Z,40.77
2022-09-21T07:53:36.433Z,40.60
2022-09-21T07:56:04.271Z,40.84
2022-09-21T07:58:49.496Z,40.67
2022-09-21T08:01:16.007Z,40.95
2022-09-21T08:03:42.416Z,40.75
2022-09-21T08:06:09.366Z,40.73
2022-09-21T08:08:36.132Z,40.69
2022-09-21T08:11:04.044Z,40.93
2022-09-21T08:13:30.986Z,40.77
2022-09-21T08:16:01.233Z,40.74
2022-09-21T08:18:27.832Z,40.75
2022-09-21T08:20:55.582Z,41.10
2022-09-21T08:23:22.072Z,40.97
2022-09-21T08:25:48.694Z,40.84
2022-09-21T08:28:15.194Z,40.97
2022-09-21T08:30:42.112Z,40.88
2022-09-21T08:33:09.130Z,40.72
2022-09-21T08:35:36.397Z,40.95
2022-09-21T08:38:02.859Z,41.14
2022-09-21T08:40:29.401Z,40.81
2022-09-21T08:43:10.968Z,40.94
2022-09-21T08:45:42.245Z,40.94
2022-09-21T08:48:33.125Z,40.78
2022-09-21T08:51:05.772Z,41.02
2022-09-21T08:53:38.314Z,40.77
2022-09-21T08:56:04.890Z,41.00
2022-09-21T08:58:32.407Z,40.82
2022-09-21T09:01:12.769Z,41.04
2022-09-21T09:04:02.871Z,41.03
2022-09-21T09:06:41.135Z,40.86
2022-09-21T09:09:08.722Z,40.90
2022-09-21T09:11:54.066Z,40.88
2022-09-21T09:14:20.640Z,40.94
2022-09-21T09:16:58.373Z,41.10
2022-09-21T09:19:33.352Z,41.18
2022-09-21T09:22:02.479Z,41.04
2022-09-21T09:24:35.822Z,41.06
2022-09-21T09:27:02.149Z,41.24
2022-09-21T09:29:28.480Z,41.13
2022-09-21T09:31:55.932Z,41.26
2022-09-21T09:34:25.001Z,41.19
2022-09-21T09:36:58.858Z,41.25
2022-09-21T09:39:26.811Z,41.22
2022-09-21T09:41:56.144Z,41.16
2022-09-21T09:44:22.555Z,41.20
2022-09-21T09:47:08.191Z,41.24
2022-09-21T09:50:06.958Z,41.32
2022-09-21T09:52:33.460Z,41.16
2022-09-21T09:55:00.298Z,41.17
2022-09-21T09:57:31.161Z,41.11
2022-09-21T10:00:04.230Z,40.98
2022-09-21T10:02:31.325Z,41.14
2022-09-21T10:05:05.899Z,41.14
2022-09-21T10:07:36.263Z,41.17
2022-09-21T10:10:03.228Z,41.27
2022-09-21T10:12:30.652Z,41.21
2022-09-21T10:15:00.035Z,41.20
2022-09-21T10:17:26.962Z,41.28
2022-09-21T10:20:01.033Z,41.26
2022-09-21T10:22:28.311Z,41.26
2022-09-21T10:24:55.099Z,41.17
2022-09-21T10:27:28.644Z,41.20
2022-09-21T10:29:55.303Z,41.12
2022-09-21T10:32:23.071Z,41.05
2022-09-21T10:35:02.192Z,41.34
2022-09-21T10:37:37.559Z,41.03
2022-09-21T10:40:05.135Z,41.04
2022-09-21T10:42:36.595Z,41.19
2022-09-21T10:45:05.710Z,41.25
2022-09-21T10:47:44.457Z,41.17
2022-09-21T10:50:40.206Z,41.22
2022-09-21T10:53:09.677Z,41.06
2022-09-21T10:56:11.853Z,41.31
2022-09-21T10:59:01.418Z,41.09
2022-09-21T11:01:28.690Z,41.27
2022-09-21T11:04:00.782Z,41.10
2022-09-21T11:06:30.036Z,41.05
2022-09-21T11:08:56.388Z,41.08
2022-09-21T11:11:32.874Z,40.96
2022-09-21T11:14:03.735Z,41.29
2022-09-21T11:16:48.535Z,41.29
2022-09-21T11:19:21.985Z,41.34
2022-09-21T11:21:48.421Z,41.26
2022-09-21T11:24:28.512Z,41.33
2022-09-21T11:26:59.167Z,41.18
2022-09-21T11:29:33.271Z,41.26
2022-09-21T11:32:18.476Z,41.33
2022-09-21T11:35:00.191Z,41.19
2022-09-21T11:37:26.532Z,41.49
2022-09-21T11:39:59.171Z,41.44
2022-09-21T11:42:44.255Z,41.29
2022-09-21T11:45:32.172Z,41.27
2022-09-21T11:48:04.785Z,41.24
2022-09-21T11:50:46.016Z,41.25
2022-09-21T11:53:32.508Z,41.53
2022-09-21T11:56:08.864Z,41.19
2022-09-21T11:59:07.842Z,41.21
2022-09-21T12:01:50.110Z,41.05
2022-09-21T12:04:28.740Z,41.52
2022-09-21T12:06:55.095Z,41.17
2022-09-21T12:09:27.613Z,41.16
2022-09-21T12:12:03.272Z,41.38
2022-09-21T12:14:35.250Z,41.46
2022-09-21T12:17:10.787Z,41.29
2022-09-21T12:19:37.209Z,41.45
2022-09-21T12:22:12.028Z,41.54
2022-09-21T12:24:47.238Z,41.23
2022-09-21T12:27:19.849Z,41.21
2022-09-21T12:29:50.845Z,41.57
2022-09-21T12:32:17.245Z,41.24
2022-09-21T12:34:46.386Z,41.25
2022-09-21T12:37:20.728Z,41.36
2022-09-21T12:40:10.243Z,41.25
2022-09-21T12:42:41.854Z,41.24
2022-09-21T12:45:14.055Z,41.23
2022-09-21T12:47:46.575Z,41.36
2022-09-21T12:50:21.162Z,41.19
2022-09-21T12:52:48.238Z,41.41
2022-09-21T12:55:17.626Z,41.27
2022-09-21T12:58:17.813Z,41.37
2022-09-21T13:00:54.355Z,41.21
2022-09-21T13:03:37.470Z,41.25
2022-09-21T13:06:06.534Z,41.30
2022-09-21T13:08:36.751Z,41.41
2022-09-21T13:11:05.689Z,41.29
2022-09-21T13:13:38.327Z,41.49
2022-09-21T13:16:08.045Z,41.35
2022-09-21T13:18:36.918Z,41.53
2022-09-21T13:21:19.475Z,41.28
2022-09-21T13:24:06.130Z,41.55
2022-09-21T13:26:35.928Z,41.48
2022-09-21T13:29:25.145Z,41.26
2022-09-21T13:31:57.433Z,41.44
2022-09-21T13:34:28.325Z,41.46
2022-09-21T13:37:14.339Z,41.38
2022-09-21T13:40:00.217Z,41.36
2022-09-21T13:42:29.744Z,41.34
2022-09-21T13:45:00.388Z,41.14
2022-09-21T13:47:32.756Z,41.33
2022-09-21T13:50:01.181Z,41.09
2022-09-21T13:52:30.567Z,41.31
2022-09-21T13:55:01.611Z,41.33
2022-09-21T13:57:36.910Z,41.14
2022-09-21T14:00:09.104Z,41.33
2022-09-21T14:02:46.599Z,40.92
2022-09-21T14:05:19.404Z,41.25
2022-09-21T14:07:47.072Z,41.33
2022-09-21T14:10:18.769Z,41.07
2022-09-21T14:12:45.620Z,41.27
2022-09-21T14:15:18.586Z,41.22
2022-09-21T14:17:45.892Z,41.20
2022-09-21T14:20:39.538Z,40.95
2022-09-21T14:23:27.837Z,41.15
2022-09-21T14:25:56.489Z,41.24
2022-09-21T14:28:47.345Z,41.29
2022-09-21T14:31:33.095Z,41.17
2022-09-21T14:34:01.307Z,41.22
2022-09-21T14:36:38.323Z,41.17
2022-09-21T14:39:05.927Z,41.04
2022-09-21T14:41:37.938Z,41.16
2022-09-21T14:44:04.667Z,41.21
2022-09-21T14:46:40.526Z,40.95
2022-09-21T14:49:21.642Z,40.96
2022-09-21T14:52:04.358Z,41.07
2022-09-21T14:54:41.660Z,41.13
2022-09-21T14:57:19.626Z,41.16
2022-09-21T14:59:52.184Z,41.14
2022-09-21T15:02:21.170Z,41.04
2022-09-21T15:05:06.410Z,41.00
2022-09-21T15:07:56.043Z,41.00
2022-09-21T15:10:48.270Z,41.00
2022-09-21T15:13:22.641Z,41.18
2022-09-21T15:16:07.278Z,41.17
2022-09-21T15:18:39.675Z,41.15
2022-09-21T15:21:26.300Z,41.13
2022-09-21T15:23:53.176Z,41.01
2022-09-21T15:26:26.749Z,40.93
2022-09-21T15:29:10.936Z,40.99
2022-09-21T15:31:41.982Z,41.10
2022-09-21T15:34:10.801Z,41.19
2022-09-21T15:36:38.393Z,41.07
2022-09-21T15:39:05.491Z,40.94
2022-09-21T15:41:34.967Z,41.14
2022-09-21T15:44:27.417Z,40.76
2022-09-21T15:47:00.297Z,40.89
2022-09-21T15:49:29.603Z,40.85
2022-09-21T15:51:59.013Z,40.99
2022-09-21T15:54:34.443Z,40.78
2022-09-21T15:57:07.924Z,40.82
2022-09-21T15:59:34.756Z,40.95
2022-09-21T16:02:10.289Z,41.11
2022-09-21T16:04:39.345Z,40.91
2022-09-21T16:07:07.157Z,40.99
2022-09-21T16:09:45.022Z,40.63
2022-09-21T16:12:34.700Z,40.93
2022-09-21T16:15:05.503Z,40.79
2022-09-21T16:17:36.055Z,40.92
2022-09-21T16:20:17.338Z,41.14
2022-09-21T16:22:45.189Z,41.02
2022-09-21T16:25:16.038Z,40.98
2022-09-21T16:27:50.695Z,40.77
2022-09-21T16:30:35.911Z,40.96
2022-09-21T16:33:02.480Z,40.93
2022-09-21T16:35:31.329Z,40.80
2022-09-21T16:37:58.083Z,40.92
2022-09-21T16:40:28.593Z,40.86
2022-09-21T16:42:55.724Z,40.93
2022-09-21T16:45:28.399Z,41.00
2022-09-21T16:47:54.764Z,40.94
2022-09-21T16:50:21.260Z,40.82
2022-09-21T16:52:52.501Z,41.04
2022-09-21T16:55:19.382Z,40.87
2022-09-21T16:57:48.919Z,40.85
2022-09-21T17:00:20.189Z,40.89
2022-09-21T17:02:48.101Z,40.86
2022-09-21T17:05:18.070Z,40.99
2022-09-21T17:07:54.778Z,40.83
2022-09-21T17:10:22.939Z,40.79
2022-09-21T17:12:50.973Z,40.76
2022-09-21T17:15:17.550Z,41.00
2022-09-21T17:17:44.173Z,40.83
2022-09-21T17:20:23.406Z,40.82
2022-09-21T17:22:49.804Z,40.83
2022-09-21T17:25:16.169Z,40.83
2022-09-21T17:27:45.110Z,40.88
2022-09-21T17:30:13.130Z,41.08
2022-09-21T17:32:42.442Z,40.94
2022-09-21T17:35:17.370Z,40.85
2022-09-21T17:37:43.832Z,40.84
2022-09-21T17:40:11.226Z,40.70
2022-09-21T17:42:42.480Z,40.86
2022-09-21T17:45:12.893Z,41.15
2022-09-21T17:47:40.485Z,40.95
2022-09-21T17:50:12.775Z,40.95
2022-09-21T17:52:58.303Z,40.86
2022-09-21T17:55:25.188Z,40.99
2022-09-21T17:57:56.695Z,41.02
2022-09-21T18:00:24.208Z,40.96
2022-09-21T18:02:52.691Z,41.07
2022-09-21T18:05:29.529Z,41.18
2022-09-21T18:07:56.748Z,41.01
2022-09-21T18:10:25.702Z,41.00
2022-09-21T18:12:53.888Z,41.19
2022-09-21T18:15:39.104Z,41.21
2022-09-21T18:18:11.712Z,40.83
2022-09-21T18:20:47.787Z,40.87
2022-09-21T18:23:14.120Z,40.88
2022-09-21T18:35:42.285Z,41.07
2022-09-21T18:38:08.827Z,40.82
2022-09-21T18:40:53.594Z,41.11
2022-09-21T18:43:44.331Z,40.91
2022-09-21T18:46:14.830Z,40.99
2022-09-21T18:48:48.559Z,40.92
2022-09-21T18:51:23.271Z,40.99
2022-09-21T18:53:52.841Z,40.98
2022-09-21T18:56:19.474Z,41.10
2022-09-21T18:58:46.625Z,40.99
2022-09-21T19:01:13.501Z,40.92
2022-09-21T19:03:40.609Z,40.99
2022-09-21T19:06:09.881Z,41.26
2022-09-21T19:08:44.643Z,41.11
2022-09-21T19:11:16.292Z,41.12
2022-09-21T19:13:51.527Z,41.36
2022-09-21T19:16:30.136Z,41.05
2022-09-21T19:19:04.778Z,41.42
2022-09-21T19:21:38.470Z,41.45
2022-09-21T19:24:19.793Z,41.54
2022-09-21T19:26:49.363Z,41.53
2022-09-21T19:29:30.973Z,41.45
2022-09-21T19:31:57.390Z,41.46
2022-09-21T19:34:23.855Z,41.50
2022-09-21T19:36:51.186Z,41.53
2022-09-21T19:39:17.645Z,41.57
2022-09-21T19:41:50.069Z,41.37
2022-09-21T19:44:23.050Z,41.60
2022-09-21T19:47:29.250Z,41.34
2022-09-21T19:49:58.841Z,41.44
2022-09-21T19:52:34.328Z,41.45
2022-09-21T19:55:19.745Z,41.41
2022-09-21T19:58:05.290Z,41.30
2022-09-21T20:00:32.104Z,41.70
2022-09-21T20:03:03.306Z,41.34
2022-09-21T20:05:37.259Z,41.50
2022-09-21T20:08:10.785Z,41.71
2022-09-21T20:10:42.164Z,41.72
2022-09-21T20:13:31.828Z,41.63
2022-09-21T20:15:59.327Z,41.50
2022-09-21T20:18:25.893Z,41.42
2022-09-21T20:20:52.363Z,41.39
2022-09-21T20:23:18.936Z,41.51
2022-09-21T20:25:54.608Z,41.40
2022-09-21T20:28:21.919Z,41.45
2022-09-21T20:30:50.875Z,41.44
2022-09-21T20:33:22.638Z,41.69
2022-09-21T20:35:50.133Z,41.43
2022-09-21T20:38:17.885Z,41.63
2022-09-21T20:40:45.143Z,41.50
2022-09-21T20:43:14.096Z,41.69
2022-09-21T20:45:40.913Z,41.65
2022-09-21T20:48:17.789Z,41.50
2022-09-21T20:50:48.864Z,41.41
2022-09-21T20:53:15.537Z,41.45
2022-09-21T20:55:43.229Z,41.73
2022-09-21T20:58:12.878Z,41.56
2022-09-21T21:00:39.565Z,41.49
2022-09-21T21:03:06.040Z,41.50
2022-09-21T21:05:32.827Z,41.52
2022-09-21T21:07:59.230Z,41.83
2022-09-21T21:10:25.838Z,41.58
2022-09-21T21:12:52.198Z,41.68
2022-09-21T21:15:18.710Z,41.74
2022-09-21T21:17:46.857Z,41.55
2022-09-21T21:20:13.796Z,41.71
2022-09-21T21:22:40.252Z,41.64
2022-09-21T21:25:06.780Z,41.47
2022-09-21T21:27:33.190Z,41.76
2022-09-21T21:30:00.241Z,41.64
2022-09-21T21:32:27.171Z,41.56
2022-09-21T21:34:54.185Z,41.52
2022-09-21T21:37:21.550Z,41.73
2022-09-21T21:39:47.967Z,41.79
2022-09-21T21:42:14.714Z,41.56
2022-09-21T21:44:41.142Z,41.64
2022-09-21T21:47:27.857Z,41.56
2022-09-21T21:49:54.005Z,41.77
2022-09-21T21:52:20.515Z,41.71
2022-09-21T21:54:46.950Z,41.72
2022-09-21T21:57:14.862Z,41.49
2022-09-21T21:59:41.267Z,41.55
2022-09-21T22:02:08.698Z,41.65
2022-09-21T22:04:35.069Z,41.52
2022-09-21T22:07:01.977Z,41.76
2022-09-21T22:09:28.471Z,41.90
2022-09-21T22:11:54.870Z,41.81
2022-09-21T22:14:23.051Z,41.80
2022-09-21T22:16:51.332Z,41.64
2022-09-21T22:19:18.028Z,41.67
2022-09-21T22:21:53.153Z,41.91
2022-09-21T22:24:21.111Z,41.96
2022-09-21T22:26:48.637Z,41.69
2022-09-21T22:29:15.781Z,41.88
2022-09-21T22:31:43.351Z,41.89
2022-09-21T22:34:10.105Z,42.15
2022-09-21T22:36:37.350Z,41.97
2022-09-21T22:39:04.769Z,42.13
2022-09-21T22:41:34.010Z,42.05
2022-09-21T22:44:00.539Z,42.33
2022-09-21T22:46:27.722Z,42.44
2022-09-21T22:48:54.211Z,42.40
2022-09-21T22:51:21.293Z,42.29
2022-09-21T22:53:48.409Z,42.39
2022-09-21T22:56:19.331Z,42.32
2022-09-21T22:58:47.134Z,42.16
2022-09-21T23:01:19.529Z,42.54
2022-09-21T23:03:47.248Z,42.40
2022-09-21T23:06:14.729Z,42.39
2022-09-21T23:08:41.731Z,42.48
2022-09-21T23:11:10.019Z,42.46
2022-09-21T23:13:36.406Z,42.58
2022-09-21T23:16:04.017Z,42.43
2022-09-21T23:18:31.226Z,42.64
2022-09-21T23:20:58.296Z,42.49
2022-09-21T23:23:25.015Z,42.46
2022-09-21T23:26:00.200Z,42.46
2022-09-21T23:28:26.524Z,42.28
2022-09-21T23:30:55.169Z,42.56
2022-09-21T23:33:21.672Z,42.39
2022-09-21T23:35:50.162Z,42.40
2022-09-21T23:38:16.547Z,42.46
2022-09-21T23:40:42.934Z,42.30
2022-09-21T23:43:09.495Z,42.34
2022-09-21T23:45:35.814Z,42.41
2022-09-21T23:48:02.244Z,42.48
2022-09-21T23:50:28.605Z,42.28
2022-09-21T23:52:54.925Z,42.45
2022-09-21T23:55:21.311Z,42.50
2022-09-21T23:57:47.629Z,42.22
